sensor_id;sensor_type;location;lat;lon;timestamp;temperature;humidity
4103;DHT22;2065;49.790;9.620;2023-03-23T00:01:29;18.50;43.90
4103;DHT22;2065;49.790;9.620;2023-03-23T00:03:58;18.50;43.80
4103;DHT22;2065;49.790;9.620;2023-03-23T00:06:26;18.50;44.20
4103;DHT22;2065;49.790;9.620;2023-03-23T00:08:58;18.50;44.00
4103;DHT22;2065;49.790;9.620;2023-03-23T00:11:30;18.50;43.90
4103;DHT22;2065;49.790;9.620;2023-03-23T00:14:00;18.40;44.30
4103;DHT22;2065;49.790;9.620;2023-03-23T00:16:29;18.40;44.80
4103;DHT22;2065;49.790;9.620;2023-03-23T00:18:59;18.10;45.20
4103;DHT22;2065;49.790;9.620;2023-03-23T00:21:28;18.20;45.30
4103;DHT22;2065;49.790;9.620;2023-03-23T00:24:04;18.20;45.00
4103;DHT22;2065;49.790;9.620;2023-03-23T00:26:33;18.30;44.90
4103;DHT22;2065;49.790;9.620;2023-03-23T00:29:03;18.20;45.10
4103;DHT22;2065;49.790;9.620;2023-03-23T00:31:31;18.10;45.20
4103;DHT22;2065;49.790;9.620;2023-03-23T00:33:59;18.10;45.20
4103;DHT22;2065;49.790;9.620;2023-03-23T00:36:30;17.90;45.30
4103;DHT22;2065;49.790;9.620;2023-03-23T00:38:57;17.70;46.20
4103;DHT22;2065;49.790;9.620;2023-03-23T00:41:25;17.80;45.90
4103;DHT22;2065;49.790;9.620;2023-03-23T00:43:54;17.90;45.80
4103;DHT22;2065;49.790;9.620;2023-03-23T00:46:23;18.00;45.70
4103;DHT22;2065;49.790;9.620;2023-03-23T00:48:50;18.10;45.60
4103;DHT22;2065;49.790;9.620;2023-03-23T00:51:18;18.30;45.50
4103;DHT22;2065;49.790;9.620;2023-03-23T00:53:46;18.20;45.50
4103;DHT22;2065;49.790;9.620;2023-03-23T00:56:13;18.10;45.60
4103;DHT22;2065;49.790;9.620;2023-03-23T00:58:41;18.20;45.00
4103;DHT22;2065;49.790;9.620;2023-03-23T01:01:08;18.20;45.10
4103;DHT22;2065;49.790;9.620;2023-03-23T01:03:37;18.00;45.50
4103;DHT22;2065;49.790;9.620;2023-03-23T01:06:05;17.80;45.40
4103;DHT22;2065;49.790;9.620;2023-03-23T01:08:39;17.70;45.70
4103;DHT22;2065;49.790;9.620;2023-03-23T01:11:11;17.90;45.20
4103;DHT22;2065;49.790;9.620;2023-03-23T01:13:39;18.10;45.10
4103;DHT22;2065;49.790;9.620;2023-03-23T01:16:07;18.20;45.00
4103;DHT22;2065;49.790;9.620;2023-03-23T01:18:34;18.30;44.80
4103;DHT22;2065;49.790;9.620;2023-03-23T01:21:05;18.10;44.80
4103;DHT22;2065;49.790;9.620;2023-03-23T01:23:33;18.10;44.50
4103;DHT22;2065;49.790;9.620;2023-03-23T01:26:03;17.80;45.60
4103;DHT22;2065;49.790;9.620;2023-03-23T01:28:31;17.80;45.20
4103;DHT22;2065;49.790;9.620;2023-03-23T01:31:00;17.80;45.00
4103;DHT22;2065;49.790;9.620;2023-03-23T01:33:28;17.80;45.20
4103;DHT22;2065;49.790;9.620;2023-03-23T01:35:55;17.70;45.00
4103;DHT22;2065;49.790;9.620;2023-03-23T01:38:24;17.60;45.70
4103;DHT22;2065;49.790;9.620;2023-03-23T01:40:51;17.80;45.50
4103;DHT22;2065;49.790;9.620;2023-03-23T01:43:18;17.80;45.30
4103;DHT22;2065;49.790;9.620;2023-03-23T01:45:45;17.90;45.20
4103;DHT22;2065;49.790;9.620;2023-03-23T01:48:15;18.00;44.90
4103;DHT22;2065;49.790;9.620;2023-03-23T01:50:51;17.90;44.70
4103;DHT22;2065;49.790;9.620;2023-03-23T01:53:24;17.90;44.70
4103;DHT22;2065;49.790;9.620;2023-03-23T01:55:53;17.80;44.70
4103;DHT22;2065;49.790;9.620;2023-03-23T01:58:24;17.70;45.30
4103;DHT22;2065;49.790;9.620;2023-03-23T02:00:54;17.60;45.10
4103;DHT22;2065;49.790;9.620;2023-03-23T02:03:23;17.60;45.10
4103;DHT22;2065;49.790;9.620;2023-03-23T02:05:51;17.60;45.10
4103;DHT22;2065;49.790;9.620;2023-03-23T02:08:29;17.70;44.80
4103;DHT22;2065;49.790;9.620;2023-03-23T02:10:56;17.70;45.40
4103;DHT22;2065;49.790;9.620;2023-03-23T02:13:23;17.60;44.60
4103;DHT22;2065;49.790;9.620;2023-03-23T02:16:00;17.30;45.30
4103;DHT22;2065;49.790;9.620;2023-03-23T02:18:38;17.20;46.00
4103;DHT22;2065;49.790;9.620;2023-03-23T02:21:35;17.40;45.70
4103;DHT22;2065;49.790;9.620;2023-03-23T02:24:44;17.40;45.70
4103;DHT22;2065;49.790;9.620;2023-03-23T02:27:25;17.60;45.20
4103;DHT22;2065;49.790;9.620;2023-03-23T02:30:08;17.40;45.20
4103;DHT22;2065;49.790;9.620;2023-03-23T02:35:34;17.70;45.30
4103;DHT22;2065;49.790;9.620;2023-03-23T02:38:05;17.70;45.70
4103;DHT22;2065;49.790;9.620;2023-03-23T02:40:36;17.80;45.00
4103;DHT22;2065;49.790;9.620;2023-03-23T02:43:08;17.80;45.10
4103;DHT22;2065;49.790;9.620;2023-03-23T02:45:37;17.40;45.00
4103;DHT22;2065;49.790;9.620;2023-03-23T02:48:06;17.60;45.30
4103;DHT22;2065;49.790;9.620;2023-03-23T02:50:36;17.70;44.90
4103;DHT22;2065;49.790;9.620;2023-03-23T02:53:06;17.80;44.90
4103;DHT22;2065;49.790;9.620;2023-03-23T02:55:34;17.80;44.90
4103;DHT22;2065;49.790;9.620;2023-03-23T02:58:09;17.60;44.80
4103;DHT22;2065;49.790;9.620;2023-03-23T03:00:36;17.70;45.20
4103;DHT22;2065;49.790;9.620;2023-03-23T03:03:04;17.60;44.80
4103;DHT22;2065;49.790;9.620;2023-03-23T03:05:40;17.60;44.80
4103;DHT22;2065;49.790;9.620;2023-03-23T03:08:15;17.50;45.30
4103;DHT22;2065;49.790;9.620;2023-03-23T03:10:51;17.60;45.40
4103;DHT22;2065;49.790;9.620;2023-03-23T03:13:29;17.70;45.00
4103;DHT22;2065;49.790;9.620;2023-03-23T03:16:05;17.60;45.00
4103;DHT22;2065;49.790;9.620;2023-03-23T03:18:39;17.70;45.00
4103;DHT22;2065;49.790;9.620;2023-03-23T03:21:12;17.80;45.00
4103;DHT22;2065;49.790;9.620;2023-03-23T03:23:43;17.80;44.80
4103;DHT22;2065;49.790;9.620;2023-03-23T03:26:13;17.60;44.40
4103;DHT22;2065;49.790;9.620;2023-03-23T03:28:48;17.40;45.10
4103;DHT22;2065;49.790;9.620;2023-03-23T03:31:19;17.20;45.80
4103;DHT22;2065;49.790;9.620;2023-03-23T03:33:47;17.20;45.50
4103;DHT22;2065;49.790;9.620;2023-03-23T03:36:18;17.20;45.40
4103;DHT22;2065;49.790;9.620;2023-03-23T03:38:49;17.30;45.40
4103;DHT22;2065;49.790;9.620;2023-03-23T03:41:17;17.30;45.50
4103;DHT22;2065;49.790;9.620;2023-03-23T03:43:46;17.50;45.40
4103;DHT22;2065;49.790;9.620;2023-03-23T03:46:13;17.50;45.30
4103;DHT22;2065;49.790;9.620;2023-03-23T03:48:40;17.60;45.10
4103;DHT22;2065;49.790;9.620;2023-03-23T03:51:07;17.40;45.30
4103;DHT22;2065;49.790;9.620;2023-03-23T03:53:38;17.40;45.20
4103;DHT22;2065;49.790;9.620;2023-03-23T03:56:06;17.60;45.30
4103;DHT22;2065;49.790;9.620;2023-03-23T03:58:39;17.60;44.90
4103;DHT22;2065;49.790;9.620;2023-03-23T04:01:22;17.60;44.80
4103;DHT22;2065;49.790;9.620;2023-03-23T04:03:50;17.50;45.00
4103;DHT22;2065;49.790;9.620;2023-03-23T04:06:26;17.60;45.10
4103;DHT22;2065;49.790;9.620;2023-03-23T04:08:55;17.60;44.90
4103;DHT22;2065;49.790;9.620;2023-03-23T04:11:22;17.40;45.10
4103;DHT22;2065;49.790;9.620;2023-03-23T04:13:49;17.30;45.10
4103;DHT22;2065;49.790;9.620;2023-03-23T04:16:21;17.30;45.50
4103;DHT22;2065;49.790;9.620;2023-03-23T04:18:49;17.20;45.90
4103;DHT22;2065;49.790;9.620;2023-03-23T04:21:17;17.30;45.50
4103;DHT22;2065;49.790;9.620;2023-03-23T04:23:47;17.30;45.50
4103;DHT22;2065;49.790;9.620;2023-03-23T04:26:16;17.40;45.60
4103;DHT22;2065;49.790;9.620;2023-03-23T04:28:47;17.50;45.30
4103;DHT22;2065;49.790;9.620;2023-03-23T04:31:28;17.40;45.90
4103;DHT22;2065;49.790;9.620;2023-03-23T04:34:05;17.40;45.10
4103;DHT22;2065;49.790;9.620;2023-03-23T04:36:38;17.50;45.30
4103;DHT22;2065;49.790;9.620;2023-03-23T04:39:13;17.50;45.00
4103;DHT22;2065;49.790;9.620;2023-03-23T04:41:43;17.60;45.00
4103;DHT22;2065;49.790;9.620;2023-03-23T04:44:22;17.70;44.60
4103;DHT22;2065;49.790;9.620;2023-03-23T04:46:57;17.70;45.00
4103;DHT22;2065;49.790;9.620;2023-03-23T04:49:27;17.90;45.00
4103;DHT22;2065;49.790;9.620;2023-03-23T04:52:04;17.90;44.80
4103;DHT22;2065;49.790;9.620;2023-03-23T04:54:58;17.80;45.10
4103;DHT22;2065;49.790;9.620;2023-03-23T04:57:28;17.80;45.20
4103;DHT22;2065;49.790;9.620;2023-03-23T05:00:14;17.50;45.50
4103;DHT22;2065;49.790;9.620;2023-03-23T05:02:47;17.80;45.50
4103;DHT22;2065;49.790;9.620;2023-03-23T05:05:18;17.90;45.40
4103;DHT22;2065;49.790;9.620;2023-03-23T05:07:46;18.00;45.60
4103;DHT22;2065;49.790;9.620;2023-03-23T05:10:17;17.80;45.90
4103;DHT22;2065;49.790;9.620;2023-03-23T05:12:46;17.80;46.80
4103;DHT22;2065;49.790;9.620;2023-03-23T05:15:15;17.60;47.20
4103;DHT22;2065;49.790;9.620;2023-03-23T05:17:44;17.80;47.60
4103;DHT22;2065;49.790;9.620;2023-03-23T05:20:16;17.80;47.20
4103;DHT22;2065;49.790;9.620;2023-03-23T05:22:52;17.90;46.90
4103;DHT22;2065;49.790;9.620;2023-03-23T05:25:27;17.80;46.60
4103;DHT22;2065;49.790;9.620;2023-03-23T05:28:02;18.00;48.00
4103;DHT22;2065;49.790;9.620;2023-03-23T05:30:56;18.10;47.90
4103;DHT22;2065;49.790;9.620;2023-03-23T05:33:27;18.10;48.60
4103;DHT22;2065;49.790;9.620;2023-03-23T05:36:00;18.20;49.00
4103;DHT22;2065;49.790;9.620;2023-03-23T05:38:34;18.20;50.00
4103;DHT22;2065;49.790;9.620;2023-03-23T05:41:02;18.10;49.90
4103;DHT22;2065;49.790;9.620;2023-03-23T05:43:39;18.20;49.90
4103;DHT22;2065;49.790;9.620;2023-03-23T05:46:25;18.20;50.20
4103;DHT22;2065;49.790;9.620;2023-03-23T05:48:56;17.90;50.20
4103;DHT22;2065;49.790;9.620;2023-03-23T05:51:30;17.90;51.70
4103;DHT22;2065;49.790;9.620;2023-03-23T05:53:57;17.40;51.80
4103;DHT22;2065;49.790;9.620;2023-03-23T05:56:25;17.40;51.50
4103;DHT22;2065;49.790;9.620;2023-03-23T05:59:05;17.40;51.80
4103;DHT22;2065;49.790;9.620;2023-03-23T06:01:34;17.40;52.80
4103;DHT22;2065;49.790;9.620;2023-03-23T06:04:01;17.20;52.20
4103;DHT22;2065;49.790;9.620;2023-03-23T06:06:39;17.30;52.20
4103;DHT22;2065;49.790;9.620;2023-03-23T06:09:09;17.10;51.50
4103;DHT22;2065;49.790;9.620;2023-03-23T06:12:03;17.10;52.00
4103;DHT22;2065;49.790;9.620;2023-03-23T06:14:42;17.20;51.10
4103;DHT22;2065;49.790;9.620;2023-03-23T06:17:10;17.10;51.30
4103;DHT22;2065;49.790;9.620;2023-03-23T06:19:37;16.90;51.10
4103;DHT22;2065;49.790;9.620;2023-03-23T06:22:10;16.60;52.00
4103;DHT22;2065;49.790;9.620;2023-03-23T06:24:56;16.70;52.30
4103;DHT22;2065;49.790;9.620;2023-03-23T06:27:32;17.00;52.10
4103;DHT22;2065;49.790;9.620;2023-03-23T06:30:00;17.10;51.30
4103;DHT22;2065;49.790;9.620;2023-03-23T06:32:30;17.10;52.10
4103;DHT22;2065;49.790;9.620;2023-03-23T06:34:57;17.20;51.20
4103;DHT22;2065;49.790;9.620;2023-03-23T06:37:57;17.20;51.50
4103;DHT22;2065;49.790;9.620;2023-03-23T06:40:51;17.10;51.00
4103;DHT22;2065;49.790;9.620;2023-03-23T06:43:18;17.30;51.10
4103;DHT22;2065;49.790;9.620;2023-03-23T06:46:02;17.40;50.90
4103;DHT22;2065;49.790;9.620;2023-03-23T06:48:29;17.10;51.10
4103;DHT22;2065;49.790;9.620;2023-03-23T06:50:56;17.10;51.40
4103;DHT22;2065;49.790;9.620;2023-03-23T06:53:25;17.30;51.10
4103;DHT22;2065;49.790;9.620;2023-03-23T06:55:55;17.30;50.70
4103;DHT22;2065;49.790;9.620;2023-03-23T06:58:22;17.40;51.50
4103;DHT22;2065;49.790;9.620;2023-03-23T07:00:53;17.30;50.90
4103;DHT22;2065;49.790;9.620;2023-03-23T07:03:24;17.30;50.90
4103;DHT22;2065;49.790;9.620;2023-03-23T07:05:52;17.40;51.00
4103;DHT22;2065;49.790;9.620;2023-03-23T07:08:21;17.60;51.00
4103;DHT22;2065;49.790;9.620;2023-03-23T07:10:52;17.60;50.80
4103;DHT22;2065;49.790;9.620;2023-03-23T07:13:24;17.60;50.50
4103;DHT22;2065;49.790;9.620;2023-03-23T07:15:55;17.60;50.50
4103;DHT22;2065;49.790;9.620;2023-03-23T07:18:25;17.60;50.10
4103;DHT22;2065;49.790;9.620;2023-03-23T07:20:53;17.50;50.70
4103;DHT22;2065;49.790;9.620;2023-03-23T07:23:26;17.30;51.20
4103;DHT22;2065;49.790;9.620;2023-03-23T07:26:06;17.30;51.00
4103;DHT22;2065;49.790;9.620;2023-03-23T07:28:47;17.30;50.70
4103;DHT22;2065;49.790;9.620;2023-03-23T07:31:21;17.40;51.10
4103;DHT22;2065;49.790;9.620;2023-03-23T07:33:50;17.40;51.00
4103;DHT22;2065;49.790;9.620;2023-03-23T07:36:18;17.20;51.10
4103;DHT22;2065;49.790;9.620;2023-03-23T07:38:46;17.40;51.10
4103;DHT22;2065;49.790;9.620;2023-03-23T07:41:14;17.20;51.80
4103;DHT22;2065;49.790;9.620;2023-03-23T07:43:42;17.20;51.50
4103;DHT22;2065;49.790;9.620;2023-03-23T07:46:09;17.40;51.60
4103;DHT22;2065;49.790;9.620;2023-03-23T07:48:45;17.70;50.70
4103;DHT22;2065;49.790;9.620;2023-03-23T07:51:14;17.80;50.90
4103;DHT22;2065;49.790;9.620;2023-03-23T07:53:45;18.00;50.50
4103;DHT22;2065;49.790;9.620;2023-03-23T07:56:35;18.10;51.60
4103;DHT22;2065;49.790;9.620;2023-03-23T07:59:07;18.10;51.70
4103;DHT22;2065;49.790;9.620;2023-03-23T08:01:37;18.00;52.00
4103;DHT22;2065;49.790;9.620;2023-03-23T08:04:23;17.90;53.10
4103;DHT22;2065;49.790;9.620;2023-03-23T08:07:23;18.10;53.10
4103;DHT22;2065;49.790;9.620;2023-03-23T08:10:08;17.60;52.60
4103;DHT22;2065;49.790;9.620;2023-03-23T08:12:57;17.70;53.40
4103;DHT22;2065;49.790;9.620;2023-03-23T08:15:59;17.70;52.60
4103;DHT22;2065;49.790;9.620;2023-03-23T08:18:47;17.60;53.00
4103;DHT22;2065;49.790;9.620;2023-03-23T08:21:33;17.70;52.90
4103;DHT22;2065;49.790;9.620;2023-03-23T08:24:18;17.80;53.50
4103;DHT22;2065;49.790;9.620;2023-03-23T08:26:52;17.60;53.60
4103;DHT22;2065;49.790;9.620;2023-03-23T08:29:38;17.60;54.10
4103;DHT22;2065;49.790;9.620;2023-03-23T08:32:06;17.50;53.80
4103;DHT22;2065;49.790;9.620;2023-03-23T08:34:52;17.40;53.90
4103;DHT22;2065;49.790;9.620;2023-03-23T08:37:37;17.60;54.50
4103;DHT22;2065;49.790;9.620;2023-03-23T08:40:21;17.90;54.10
4103;DHT22;2065;49.790;9.620;2023-03-23T08:43:13;17.90;54.50
4103;DHT22;2065;49.790;9.620;2023-03-23T08:46:01;18.00;54.40
4103;DHT22;2065;49.790;9.620;2023-03-23T08:48:57;17.90;54.30
4103;DHT22;2065;49.790;9.620;2023-03-23T08:52:00;17.70;54.40
4103;DHT22;2065;49.790;9.620;2023-03-23T08:54:46;17.50;54.60
4103;DHT22;2065;49.790;9.620;2023-03-23T08:57:27;17.20;55.60
4103;DHT22;2065;49.790;9.620;2023-03-23T09:00:15;17.30;55.40
4103;DHT22;2065;49.790;9.620;2023-03-23T09:03:02;17.60;55.00
4103;DHT22;2065;49.790;9.620;2023-03-23T09:05:58;17.90;54.70
4103;DHT22;2065;49.790;9.620;2023-03-23T09:08:35;17.90;53.70
4103;DHT22;2065;49.790;9.620;2023-03-23T09:11:05;17.90;54.40
4103;DHT22;2065;49.790;9.620;2023-03-23T09:13:34;18.20;53.70
4103;DHT22;2065;49.790;9.620;2023-03-23T09:16:01;18.40;53.10
4103;DHT22;2065;49.790;9.620;2023-03-23T09:18:28;18.40;53.80
4103;DHT22;2065;49.790;9.620;2023-03-23T09:20:56;18.60;53.20
4103;DHT22;2065;49.790;9.620;2023-03-23T09:23:23;18.40;52.40
4103;DHT22;2065;49.790;9.620;2023-03-23T09:25:51;18.10;52.60
4103;DHT22;2065;49.790;9.620;2023-03-23T09:28:18;18.10;53.70
4103;DHT22;2065;49.790;9.620;2023-03-23T09:30:46;18.10;54.10
4103;DHT22;2065;49.790;9.620;2023-03-23T09:33:14;18.30;53.60
4103;DHT22;2065;49.790;9.620;2023-03-23T09:35:41;18.20;53.30
4103;DHT22;2065;49.790;9.620;2023-03-23T09:38:10;18.30;53.90
4103;DHT22;2065;49.790;9.620;2023-03-23T09:40:43;18.40;53.20
4103;DHT22;2065;49.790;9.620;2023-03-23T09:43:35;18.30;53.70
4103;DHT22;2065;49.790;9.620;2023-03-23T09:46:26;17.80;53.40
4103;DHT22;2065;49.790;9.620;2023-03-23T09:48:57;17.80;54.00
4103;DHT22;2065;49.790;9.620;2023-03-23T09:51:38;17.90;53.40
4103;DHT22;2065;49.790;9.620;2023-03-23T09:54:12;17.90;53.80
4103;DHT22;2065;49.790;9.620;2023-03-23T09:56:40;18.10;54.40
4103;DHT22;2065;49.790;9.620;2023-03-23T09:59:14;18.20;54.50
4103;DHT22;2065;49.790;9.620;2023-03-23T10:01:47;18.10;54.30
4103;DHT22;2065;49.790;9.620;2023-03-23T10:04:22;18.10;54.80
4103;DHT22;2065;49.790;9.620;2023-03-23T10:06:51;18.10;55.50
4103;DHT22;2065;49.790;9.620;2023-03-23T10:09:19;18.00;55.50
4103;DHT22;2065;49.790;9.620;2023-03-23T10:11:56;17.90;55.90
4103;DHT22;2065;49.790;9.620;2023-03-23T10:14:37;17.80;56.40
4103;DHT22;2065;49.790;9.620;2023-03-23T10:17:14;17.80;57.00
4103;DHT22;2065;49.790;9.620;2023-03-23T10:19:47;18.00;57.10
4103;DHT22;2065;49.790;9.620;2023-03-23T10:22:23;18.00;56.00
4103;DHT22;2065;49.790;9.620;2023-03-23T10:24:57;17.70;56.10
4103;DHT22;2065;49.790;9.620;2023-03-23T10:27:33;17.90;56.80
4103;DHT22;2065;49.790;9.620;2023-03-23T10:30:03;18.30;57.10
4103;DHT22;2065;49.790;9.620;2023-03-23T10:32:48;18.40;54.60
4103;DHT22;2065;49.790;9.620;2023-03-23T10:35:29;18.40;55.50
4103;DHT22;2065;49.790;9.620;2023-03-23T10:38:00;18.40;54.70
4103;DHT22;2065;49.790;9.620;2023-03-23T10:40:29;18.40;54.70
4103;DHT22;2065;49.790;9.620;2023-03-23T10:42:58;18.60;53.90
4103;DHT22;2065;49.790;9.620;2023-03-23T10:45:27;18.80;54.90
4103;DHT22;2065;49.790;9.620;2023-03-23T10:48:06;19.20;54.10
4103;DHT22;2065;49.790;9.620;2023-03-23T10:50:38;19.30;52.50
4103;DHT22;2065;49.790;9.620;2023-03-23T10:53:12;19.30;52.60
4103;DHT22;2065;49.790;9.620;2023-03-23T10:55:41;19.30;52.50
4103;DHT22;2065;49.790;9.620;2023-03-23T10:58:11;19.30;52.40
4103;DHT22;2065;49.790;9.620;2023-03-23T11:00:44;19.20;52.30
4103;DHT22;2065;49.790;9.620;2023-03-23T11:03:25;19.10;52.10
4103;DHT22;2065;49.790;9.620;2023-03-23T11:05:56;18.90;52.20
4103;DHT22;2065;49.790;9.620;2023-03-23T11:08:27;19.00;51.30
4103;DHT22;2065;49.790;9.620;2023-03-23T11:10:58;19.00;51.50
4103;DHT22;2065;49.790;9.620;2023-03-23T11:13:30;19.00;51.90
4103;DHT22;2065;49.790;9.620;2023-03-23T11:15:59;18.90;51.70
4103;DHT22;2065;49.790;9.620;2023-03-23T11:18:36;18.80;51.70
4103;DHT22;2065;49.790;9.620;2023-03-23T11:21:06;18.80;50.90
4103;DHT22;2065;49.790;9.620;2023-03-23T11:23:36;18.70;50.90
4103;DHT22;2065;49.790;9.620;2023-03-23T11:26:11;18.70;51.20
4103;DHT22;2065;49.790;9.620;2023-03-23T11:28:43;18.70;51.50
4103;DHT22;2065;49.790;9.620;2023-03-23T11:31:11;18.70;51.20
4103;DHT22;2065;49.790;9.620;2023-03-23T11:33:47;19.00;51.30
4103;DHT22;2065;49.790;9.620;2023-03-23T11:36:14;18.90;51.30
4103;DHT22;2065;49.790;9.620;2023-03-23T11:38:43;18.50;52.10
4103;DHT22;2065;49.790;9.620;2023-03-23T11:41:11;18.40;53.70
4103;DHT22;2065;49.790;9.620;2023-03-23T11:43:40;18.40;53.80
4103;DHT22;2065;49.790;9.620;2023-03-23T11:46:15;18.70;55.10
4103;DHT22;2065;49.790;9.620;2023-03-23T11:48:54;18.80;53.90
4103;DHT22;2065;49.790;9.620;2023-03-23T11:51:29;18.30;53.90
4103;DHT22;2065;49.790;9.620;2023-03-23T11:54:00;18.20;55.40
4103;DHT22;2065;49.790;9.620;2023-03-23T11:56:31;18.40;55.30
4103;DHT22;2065;49.790;9.620;2023-03-23T11:59:00;18.30;55.50
4103;DHT22;2065;49.790;9.620;2023-03-23T12:01:40;18.30;55.20
4103;DHT22;2065;49.790;9.620;2023-03-23T12:04:33;18.50;55.30
4103;DHT22;2065;49.790;9.620;2023-03-23T12:07:18;18.60;55.20
4103;DHT22;2065;49.790;9.620;2023-03-23T12:09:54;18.70;54.70
4103;DHT22;2065;49.790;9.620;2023-03-23T12:12:29;18.70;54.50
4103;DHT22;2065;49.790;9.620;2023-03-23T12:15:04;18.70;55.40
4103;DHT22;2065;49.790;9.620;2023-03-23T12:17:43;18.60;55.00
4103;DHT22;2065;49.790;9.620;2023-03-23T12:20:21;18.10;55.50
4103;DHT22;2065;49.790;9.620;2023-03-23T12:23:05;18.10;56.10
4103;DHT22;2065;49.790;9.620;2023-03-23T12:25:48;18.30;56.30
4103;DHT22;2065;49.790;9.620;2023-03-23T12:28:27;18.10;57.10
4103;DHT22;2065;49.790;9.620;2023-03-23T12:31:03;18.10;57.30
4103;DHT22;2065;49.790;9.620;2023-03-23T12:33:40;18.00;57.30
4103;DHT22;2065;49.790;9.620;2023-03-23T12:36:21;18.00;57.50
4103;DHT22;2065;49.790;9.620;2023-03-23T12:39:05;18.30;57.30
4103;DHT22;2065;49.790;9.620;2023-03-23T12:41:38;18.40;56.00
4103;DHT22;2065;49.790;9.620;2023-03-23T12:44:09;18.40;56.80
4103;DHT22;2065;49.790;9.620;2023-03-23T12:47:06;18.60;57.10
4103;DHT22;2065;49.790;9.620;2023-03-23T12:49:39;18.80;55.40
4103;DHT22;2065;49.790;9.620;2023-03-23T12:52:15;18.90;55.80
4103;DHT22;2065;49.790;9.620;2023-03-23T12:54:47;18.80;56.60
4103;DHT22;2065;49.790;9.620;2023-03-23T12:57:24;18.70;56.30
4103;DHT22;2065;49.790;9.620;2023-03-23T13:00:04;18.80;56.60
4103;DHT22;2065;49.790;9.620;2023-03-23T13:02:40;18.90;56.20
4103;DHT22;2065;49.790;9.620;2023-03-23T13:05:24;18.80;55.90
4103;DHT22;2065;49.790;9.620;2023-03-23T13:07:56;18.80;56.00
4103;DHT22;2065;49.790;9.620;2023-03-23T13:10:28;18.60;56.00
4103;DHT22;2065;49.790;9.620;2023-03-23T13:12:56;18.50;56.50
4103;DHT22;2065;49.790;9.620;2023-03-23T13:15:32;18.50;56.60
4103;DHT22;2065;49.790;9.620;2023-03-23T13:18:09;18.60;55.50
4103;DHT22;2065;49.790;9.620;2023-03-23T13:20:52;18.80;55.80
4103;DHT22;2065;49.790;9.620;2023-03-23T13:23:24;18.80;54.40
4103;DHT22;2065;49.790;9.620;2023-03-23T13:25:55;19.00;54.20
4103;DHT22;2065;49.790;9.620;2023-03-23T13:28:25;19.00;53.60
4103;DHT22;2065;49.790;9.620;2023-03-23T13:30:59;19.10;52.50
4103;DHT22;2065;49.790;9.620;2023-03-23T13:33:33;19.00;53.30
4103;DHT22;2065;49.790;9.620;2023-03-23T13:36:08;19.10;53.10
4103;DHT22;2065;49.790;9.620;2023-03-23T13:38:37;19.20;53.50
4103;DHT22;2065;49.790;9.620;2023-03-23T13:41:08;19.10;52.80
4103;DHT22;2065;49.790;9.620;2023-03-23T13:43:37;19.20;52.70
4103;DHT22;2065;49.790;9.620;2023-03-23T13:46:22;19.20;51.60
4103;DHT22;2065;49.790;9.620;2023-03-23T13:49:02;19.10;52.10
4103;DHT22;2065;49.790;9.620;2023-03-23T13:51:35;19.00;52.60
4103;DHT22;2065;49.790;9.620;2023-03-23T13:54:15;19.00;52.20
4103;DHT22;2065;49.790;9.620;2023-03-23T13:56:53;19.00;52.40
4103;DHT22;2065;49.790;9.620;2023-03-23T13:59:34;19.10;52.00
4103;DHT22;2065;49.790;9.620;2023-03-23T14:02:31;19.10;51.30
4103;DHT22;2065;49.790;9.620;2023-03-23T14:05:10;19.10;51.40
4103;DHT22;2065;49.790;9.620;2023-03-23T14:07:54;19.20;52.90
4103;DHT22;2065;49.790;9.620;2023-03-23T14:10:23;19.10;51.70
4103;DHT22;2065;49.790;9.620;2023-03-23T14:12:52;19.30;51.90
4103;DHT22;2065;49.790;9.620;2023-03-23T14:15:20;19.30;51.70
4103;DHT22;2065;49.790;9.620;2023-03-23T14:17:47;19.30;51.80
4103;DHT22;2065;49.790;9.620;2023-03-23T14:20:29;19.30;51.50
4103;DHT22;2065;49.790;9.620;2023-03-23T14:22:58;19.10;52.20
4103;DHT22;2065;49.790;9.620;2023-03-23T14:25:29;18.90;52.70
4103;DHT22;2065;49.790;9.620;2023-03-23T14:27:57;18.80;52.60
4103;DHT22;2065;49.790;9.620;2023-03-23T14:30:25;18.90;52.70
4103;DHT22;2065;49.790;9.620;2023-03-23T14:32:54;18.90;52.90
4103;DHT22;2065;49.790;9.620;2023-03-23T14:35:26;19.10;52.60
4103;DHT22;2065;49.790;9.620;2023-03-23T14:37:54;19.00;52.00
4103;DHT22;2065;49.790;9.620;2023-03-23T14:40:21;18.90;52.50
4103;DHT22;2065;49.790;9.620;2023-03-23T14:42:50;18.80;52.50
4103;DHT22;2065;49.790;9.620;2023-03-23T14:45:21;18.70;52.70
4103;DHT22;2065;49.790;9.620;2023-03-23T14:47:50;18.80;52.40
4103;DHT22;2065;49.790;9.620;2023-03-23T14:50:27;18.60;52.40
4103;DHT22;2065;49.790;9.620;2023-03-23T14:53:01;18.60;52.70
4103;DHT22;2065;49.790;9.620;2023-03-23T14:55:31;18.80;52.30
4103;DHT22;2065;49.790;9.620;2023-03-23T14:58:07;18.70;52.20
4103;DHT22;2065;49.790;9.620;2023-03-23T15:00:38;18.40;52.50
4103;DHT22;2065;49.790;9.620;2023-03-23T15:03:10;18.30;52.60
4103;DHT22;2065;49.790;9.620;2023-03-23T15:05:41;18.50;52.70
4103;DHT22;2065;49.790;9.620;2023-03-23T15:08:14;18.50;52.60
4103;DHT22;2065;49.790;9.620;2023-03-23T15:10:41;18.40;52.80
4103;DHT22;2065;49.790;9.620;2023-03-23T15:13:12;18.10;53.90
4103;DHT22;2065;49.790;9.620;2023-03-23T15:15:39;18.00;54.30
4103;DHT22;2065;49.790;9.620;2023-03-23T15:18:22;17.80;55.00
4103;DHT22;2065;49.790;9.620;2023-03-23T15:20:52;17.60;55.80
4103;DHT22;2065;49.790;9.620;2023-03-23T15:23:26;17.30;56.20
4103;DHT22;2065;49.790;9.620;2023-03-23T15:25:55;17.50;56.20
4103;DHT22;2065;49.790;9.620;2023-03-23T15:28:30;17.50;56.60
4103;DHT22;2065;49.790;9.620;2023-03-23T15:31:00;17.30;57.10
4103;DHT22;2065;49.790;9.620;2023-03-23T15:33:34;17.20;58.00
4103;DHT22;2065;49.790;9.620;2023-03-23T15:36:06;17.20;58.20
4103;DHT22;2065;49.790;9.620;2023-03-23T15:38:35;17.20;58.40
4103;DHT22;2065;49.790;9.620;2023-03-23T15:41:04;17.20;59.00
4103;DHT22;2065;49.790;9.620;2023-03-23T15:43:34;17.20;58.80
4103;DHT22;2065;49.790;9.620;2023-03-23T15:46:03;17.20;58.30
4103;DHT22;2065;49.790;9.620;2023-03-23T15:48:32;17.30;57.80
4103;DHT22;2065;49.790;9.620;2023-03-23T15:51:02;17.30;58.10
4103;DHT22;2065;49.790;9.620;2023-03-23T15:53:32;17.50;57.90
4103;DHT22;2065;49.790;9.620;2023-03-23T15:56:00;17.60;57.10
4103;DHT22;2065;49.790;9.620;2023-03-23T15:58:28;17.90;56.80
4103;DHT22;2065;49.790;9.620;2023-03-23T16:00:57;18.00;56.30
4103;DHT22;2065;49.790;9.620;2023-03-23T16:03:29;18.10;55.70
4103;DHT22;2065;49.790;9.620;2023-03-23T16:05:59;18.20;55.70
4103;DHT22;2065;49.790;9.620;2023-03-23T16:08:28;18.20;55.50
4103;DHT22;2065;49.790;9.620;2023-03-23T16:10:55;17.90;56.10
4103;DHT22;2065;49.790;9.620;2023-03-23T16:13:22;18.00;55.80
4103;DHT22;2065;49.790;9.620;2023-03-23T16:15:49;17.90;56.00
4103;DHT22;2065;49.790;9.620;2023-03-23T16:18:20;17.90;56.00
4103;DHT22;2065;49.790;9.620;2023-03-23T16:20:47;18.00;56.20
4103;DHT22;2065;49.790;9.620;2023-03-23T16:23:15;18.10;56.10
4103;DHT22;2065;49.790;9.620;2023-03-23T16:25:42;18.30;55.60
4103;DHT22;2065;49.790;9.620;2023-03-23T16:28:11;18.40;54.90
4103;DHT22;2065;49.790;9.620;2023-03-23T16:30:38;18.20;55.20
4103;DHT22;2065;49.790;9.620;2023-03-23T16:33:05;18.00;55.10
4103;DHT22;2065;49.790;9.620;2023-03-23T16:35:34;18.00;56.10
4103;DHT22;2065;49.790;9.620;2023-03-23T16:38:02;18.00;55.50
4103;DHT22;2065;49.790;9.620;2023-03-23T16:40:29;17.90;56.00
4103;DHT22;2065;49.790;9.620;2023-03-23T16:42:56;18.10;55.70
4103;DHT22;2065;49.790;9.620;2023-03-23T16:45:23;18.30;55.20